createdAt,value
2018-07-10T00:03:18.572Z,8.27
2018-07-10T00:06:10.693Z,8.53
2018-07-10T00:10:10.366Z,6.30
2018-07-10T00:12:38.999Z,7.43
2018-07-10T00:15:07.557Z,7.17
2018-07-10T00:17:36.393Z,7.47
2018-07-10T00:20:04.947Z,10.07
2018-07-10T00:22:33.686Z,4.20
2018-07-10T00:25:02.117Z,9.13
2018-07-10T00:27:30.928Z,4.97
2018-07-10T00:29:59.435Z,6.83
2018-07-10T00:32:27.854Z,6.57
2018-07-10T00:34:56.669Z,6.07
2018-07-10T00:37:25.545Z,8.40
2018-07-10T00:39:54.338Z,5.63
2018-07-10T00:42:23.000Z,7.10
2018-07-10T00:44:51.392Z,7.23
2018-07-10T00:47:19.857Z,10.53
2018-07-10T00:49:48.762Z,4.60
2018-07-10T00:52:29.661Z,6.13
2018-07-10T00:54:58.802Z,5.23
2018-07-10T00:57:27.156Z,8.33
2018-07-10T00:59:55.753Z,5.10
2018-07-10T01:02:24.323Z,8.50
2018-07-10T01:04:52.864Z,10.53
2018-07-10T01:07:21.781Z,7.03
2018-07-10T01:09:50.245Z,5.20
2018-07-10T01:12:18.860Z,7.67
2018-07-10T01:14:47.438Z,8.00
2018-07-10T01:17:15.966Z,7.80
2018-07-10T01:19:44.415Z,7.83
2018-07-10T01:22:13.357Z,10.23
2018-07-10T01:24:41.881Z,10.63
2018-07-10T01:27:10.841Z,9.23
2018-07-10T01:29:44.896Z,7.30
2018-07-10T01:32:13.568Z,6.00
2018-07-10T01:34:42.195Z,7.50
2018-07-10T01:37:10.812Z,4.63
2018-07-10T01:39:39.708Z,6.00
2018-07-10T01:42:08.253Z,4.00
2018-07-10T01:44:36.667Z,6.43
2018-07-10T01:47:05.243Z,5.60
2018-07-10T01:49:33.997Z,4.87
2018-07-10T01:52:02.512Z,3.60
2018-07-10T01:54:31.207Z,3.30
2018-07-10T01:56:59.705Z,4.97
2018-07-10T01:59:28.730Z,3.33
2018-07-10T02:01:57.749Z,6.07
2018-07-10T02:04:26.368Z,4.47
2018-07-10T02:06:55.025Z,6.30
2018-07-10T02:09:23.631Z,3.03
2018-07-10T02:11:52.212Z,2.77
2018-07-10T02:14:20.700Z,7.87
2018-07-10T02:16:49.685Z,4.07
2018-07-10T02:19:18.651Z,5.47
2018-07-10T02:21:47.423Z,7.17
2018-07-10T02:24:21.549Z,5.07
2018-07-10T02:26:50.447Z,4.40
2018-07-10T02:29:19.343Z,6.37
2018-07-10T02:31:48.824Z,4.83
2018-07-10T02:34:17.502Z,3.33
2018-07-10T02:36:46.577Z,5.97
2018-07-10T02:39:16.867Z,5.30
2018-07-10T02:41:45.533Z,4.73
2018-07-10T02:44:14.029Z,4.20
2018-07-10T02:46:42.661Z,5.00
2018-07-10T02:49:21.363Z,4.53
2018-07-10T02:51:56.284Z,6.10
2018-07-10T02:54:27.438Z,4.83
2018-07-10T02:56:57.377Z,7.77
2018-07-10T02:59:38.273Z,3.63
2018-07-10T03:02:28.657Z,5.50
2018-07-10T03:05:00.923Z,3.73
2018-07-10T03:07:31.377Z,6.27
2018-07-10T03:10:01.498Z,3.57
2018-07-10T03:12:32.465Z,5.10
2018-07-10T03:15:11.489Z,3.73
2018-07-10T03:17:40.405Z,4.73
2018-07-10T03:20:09.373Z,7.10
2018-07-10T03:22:38.080Z,5.50
2018-07-10T03:25:07.999Z,3.90
2018-07-10T03:27:36.823Z,3.90
2018-07-10T03:30:05.688Z,4.40
2018-07-10T03:32:34.192Z,6.37
2018-07-10T03:35:02.657Z,4.10
2018-07-10T03:37:31.465Z,2.83
2018-07-10T03:39:59.976Z,5.33
2018-07-10T03:42:28.885Z,6.70
2018-07-10T03:44:57.448Z,8.50
2018-07-10T03:47:27.270Z,6.67
2018-07-10T03:49:55.694Z,5.97
2018-07-10T03:52:32.304Z,6.37
2018-07-10T03:55:13.930Z,6.30
2018-07-10T03:57:42.564Z,4.77
2018-07-10T04:00:13.212Z,6.93
2018-07-10T04:02:48.074Z,4.50
2018-07-10T04:05:18.434Z,5.57
2018-07-10T04:07:51.665Z,6.27
2018-07-10T04:10:34.046Z,3.93
2018-07-10T04:13:15.801Z,4.00
2018-07-10T04:15:47.593Z,5.07
2018-07-10T04:18:20.505Z,3.10
2018-07-10T04:21:05.518Z,5.17
2018-07-10T04:23:37.975Z,5.57
2018-07-10T04:26:17.072Z,7.70
2018-07-10T04:28:58.081Z,3.63
2018-07-10T04:31:35.012Z,8.00
2018-07-10T04:34:03.804Z,2.53
2018-07-10T04:36:32.457Z,3.73
2018-07-10T04:39:01.137Z,4.47
2018-07-10T04:41:31.901Z,2.67
2018-07-10T04:44:10.688Z,2.40
2018-07-10T04:46:49.428Z,7.03
2018-07-10T04:49:44.113Z,6.33
2018-07-10T04:52:27.721Z,4.70
2018-07-10T04:55:06.711Z,4.00
2018-07-10T04:58:01.056Z,5.60
2018-07-10T05:00:30.933Z,4.53
2018-07-10T05:03:00.731Z,4.73
2018-07-10T05:05:32.200Z,5.93
2018-07-10T05:08:04.029Z,5.27
2018-07-10T05:10:34.349Z,4.43
2018-07-10T05:13:05.252Z,5.43
2018-07-10T05:15:34.868Z,4.80
2018-07-10T05:18:08.025Z,4.93
2018-07-10T05:20:37.630Z,4.07
2018-07-10T05:23:06.527Z,4.23
2018-07-10T05:25:37.683Z,6.07
2018-07-10T05:28:06.283Z,5.77
2018-07-10T05:30:36.709Z,8.87
2018-07-10T05:33:05.873Z,8.20
2018-07-10T05:35:34.451Z,9.43
2018-07-10T05:38:05.342Z,12.80
2018-07-10T05:40:34.352Z,14.20
2018-07-10T05:43:08.369Z,14.23
2018-07-10T05:45:38.840Z,12.10
2018-07-10T05:48:08.100Z,9.23
2018-07-10T05:50:38.737Z,12.43
2018-07-10T05:53:10.570Z,11.90
2018-07-10T05:55:48.564Z,12.33
2018-07-10T05:58:17.338Z,6.33
2018-07-10T06:00:46.038Z,9.03
2018-07-10T06:03:14.942Z,8.00
2018-07-10T06:05:43.761Z,8.13
2018-07-10T06:08:14.001Z,7.90
2018-07-10T06:10:43.630Z,8.13
2018-07-10T06:13:12.499Z,9.80
2018-07-10T06:15:41.105Z,6.23
2018-07-10T06:18:09.505Z,5.73
2018-07-10T06:20:40.360Z,6.07
2018-07-10T06:23:08.936Z,6.90
2018-07-10T06:25:37.700Z,9.13
2018-07-10T06:28:11.724Z,4.77
2018-07-10T06:30:43.804Z,5.17
2018-07-10T06:33:21.048Z,5.17
2018-07-10T06:36:04.985Z,8.50
2018-07-10T06:38:37.137Z,7.07
2018-07-10T06:41:05.986Z,7.10
2018-07-10T06:43:49.301Z,8.73
2018-07-10T06:46:26.617Z,6.10
2018-07-10T06:48:59.420Z,12.37
2018-07-10T06:51:28.238Z,6.97
2018-07-10T06:54:01.717Z,9.07
2018-07-10T06:56:30.400Z,9.77
2018-07-10T06:58:58.923Z,6.67
2018-07-10T07:01:27.266Z,7.50
2018-07-10T07:04:00.590Z,4.80
2018-07-10T07:06:30.024Z,6.77
2018-07-10T07:08:58.689Z,8.53
2018-07-10T07:11:27.229Z,5.70
2018-07-10T07:13:56.463Z,11.23
2018-07-10T07:16:25.289Z,8.03
2018-07-10T07:18:54.248Z,13.97
2018-07-10T07:21:22.703Z,10.63
2018-07-10T07:23:51.306Z,8.90
2018-07-10T07:26:19.931Z,10.80
2018-07-10T07:28:49.578Z,8.73
2018-07-10T07:31:18.678Z,10.17
2018-07-10T07:33:47.353Z,4.70
2018-07-10T07:36:15.880Z,3.60
2018-07-10T07:38:44.352Z,6.10
2018-07-10T07:41:12.788Z,5.13
2018-07-10T07:43:41.424Z,7.83
2018-07-10T07:46:09.949Z,5.10
2018-07-10T07:48:38.530Z,9.07
2018-07-10T07:51:07.147Z,8.53
2018-07-10T07:53:36.096Z,9.03
2018-07-10T07:56:05.484Z,12.23
2018-07-10T07:58:34.717Z,6.40
2018-07-10T08:01:03.413Z,3.00
2018-07-10T08:03:32.340Z,5.50
2018-07-10T08:06:00.972Z,4.70
2018-07-10T08:08:30.057Z,4.03
2018-07-10T08:10:58.723Z,4.13
2018-07-10T08:13:27.393Z,8.37
2018-07-10T08:15:56.001Z,8.60
2018-07-10T08:18:24.639Z,7.33
2018-07-10T08:20:53.325Z,8.63
2018-07-10T08:23:21.975Z,10.93
2018-07-10T08:25:50.704Z,4.83
2018-07-10T08:28:19.768Z,10.23
2018-07-10T08:30:48.749Z,5.00
2018-07-10T08:33:17.771Z,7.40
2018-07-10T08:35:46.354Z,11.93
2018-07-10T08:38:37.560Z,8.57
2018-07-10T08:41:07.069Z,9.33
2018-07-10T08:43:35.602Z,7.17
2018-07-10T08:46:04.187Z,9.43
2018-07-10T08:48:32.599Z,14.23
2018-07-10T08:51:01.620Z,6.87
2018-07-10T08:53:30.353Z,6.53
2018-07-10T08:55:59.301Z,6.40
2018-07-10T08:58:28.102Z,4.97
2018-07-10T09:00:56.918Z,6.77
2018-07-10T09:03:25.333Z,6.30
2018-07-10T09:05:53.932Z,4.87
2018-07-10T09:08:22.509Z,6.83
2018-07-10T09:10:51.206Z,7.33
2018-07-10T09:13:20.253Z,4.90
2018-07-10T09:15:49.003Z,6.67
2018-07-10T09:18:17.991Z,6.00
2018-07-10T09:20:50.510Z,7.77
2018-07-10T09:23:20.193Z,6.20
2018-07-10T09:25:54.268Z,5.53
2018-07-10T09:28:24.007Z,6.60
2018-07-10T09:30:52.821Z,13.67
2018-07-10T09:33:21.496Z,8.93
2018-07-10T09:35:50.059Z,12.87
2018-07-10T09:38:18.608Z,8.67
2018-07-10T09:40:47.427Z,5.70
2018-07-10T09:43:16.317Z,11.90
2018-07-10T09:45:45.352Z,8.97
2018-07-10T09:48:14.130Z,8.73
2018-07-10T09:53:03.053Z,6.20
2018-07-10T09:55:32.325Z,6.23
2018-07-10T09:58:01.272Z,8.83
2018-07-10T10:00:37.010Z,9.40
2018-07-10T10:03:05.696Z,6.60
2018-07-10T10:05:39.469Z,7.87
2018-07-10T10:08:08.529Z,11.87
2018-07-10T10:10:38.332Z,7.63
2018-07-10T10:13:07.613Z,10.73
2018-07-10T10:15:36.939Z,8.03
2018-07-10T10:18:08.054Z,9.93
2018-07-10T10:20:38.496Z,11.00
2018-07-10T10:23:08.283Z,9.37
2018-07-10T10:25:39.285Z,11.20
2018-07-10T10:28:09.632Z,7.13
2018-07-10T10:30:41.067Z,11.90
2018-07-10T10:33:10.309Z,10.70
2018-07-10T10:35:39.463Z,10.23
2018-07-10T10:38:08.093Z,12.13
2018-07-10T10:40:38.375Z,13.53
2018-07-10T10:43:10.166Z,12.53
2018-07-10T10:45:43.185Z,16.67
2018-07-10T10:48:13.809Z,22.00
2018-07-10T10:50:48.890Z,15.17
2018-07-10T10:53:19.158Z,14.07
2018-07-10T10:55:47.999Z,16.40
2018-07-10T10:58:17.659Z,12.47
2018-07-10T11:00:46.444Z,7.50
2018-07-10T11:03:15.239Z,17.17
2018-07-10T11:05:44.903Z,16.60
2018-07-10T11:08:14.143Z,13.30
2018-07-10T11:10:44.193Z,8.90
2018-07-10T11:13:15.915Z,14.93
2018-07-10T11:15:47.377Z,12.70
2018-07-10T11:20:30.666Z,13.67
2018-07-10T11:23:06.368Z,11.83
2018-07-10T11:25:42.240Z,12.77
2018-07-10T11:28:12.868Z,10.67
2018-07-10T11:30:42.011Z,12.73
2018-07-10T11:33:11.166Z,14.70
2018-07-10T11:35:39.834Z,11.43
2018-07-10T11:38:12.483Z,18.30
2018-07-10T11:40:44.924Z,13.07
2018-07-10T11:43:13.853Z,17.43
2018-07-10T11:45:42.625Z,17.37
2018-07-10T11:48:11.285Z,14.70
2018-07-10T11:50:40.123Z,15.30
2018-07-10T11:53:08.681Z,16.67
2018-07-10T11:55:37.373Z,12.30
2018-07-10T11:58:07.556Z,8.27
2018-07-10T12:00:37.143Z,8.50
2018-07-10T12:03:06.855Z,7.67
2018-07-10T12:05:38.655Z,9.17
2018-07-10T12:08:07.688Z,9.27
2018-07-10T12:10:37.271Z,16.33
2018-07-10T12:13:06.267Z,10.57
2018-07-10T12:15:35.113Z,9.93
2018-07-10T12:18:03.929Z,13.20
2018-07-10T12:20:39.904Z,10.93
2018-07-10T12:23:10.899Z,14.57
2018-07-10T12:25:43.450Z,15.50
2018-07-10T12:28:13.568Z,14.67
2018-07-10T12:30:42.480Z,13.40
2018-07-10T12:33:11.150Z,15.33
2018-07-10T12:35:39.599Z,11.73
2018-07-10T12:38:08.149Z,13.80
2018-07-10T12:40:36.597Z,12.50
2018-07-10T12:43:05.541Z,13.93
2018-07-10T12:45:34.102Z,10.67
2018-07-10T12:48:03.427Z,11.27
2018-07-10T12:50:32.205Z,8.37
2018-07-10T12:53:01.016Z,9.97
2018-07-10T12:55:29.665Z,12.00
2018-07-10T12:57:59.216Z,14.37
2018-07-10T13:00:30.749Z,15.30
2018-07-10T13:03:01.229Z,13.00
2018-07-10T13:05:37.197Z,13.53
2018-07-10T13:08:05.881Z,11.83
2018-07-10T13:10:34.832Z,16.13
2018-07-10T13:13:03.580Z,9.33
2018-07-10T13:15:32.300Z,12.10
2018-07-10T13:18:01.134Z,11.30
2018-07-10T13:20:30.069Z,8.13
2018-07-10T13:22:58.648Z,17.17
2018-07-10T13:25:27.454Z,12.93
2018-07-10T13:27:56.356Z,9.97
2018-07-10T13:30:25.365Z,8.83
2018-07-10T13:32:54.230Z,11.93
2018-07-10T13:35:22.837Z,12.00
2018-07-10T13:37:51.638Z,11.03
2018-07-10T13:40:20.323Z,15.33
2018-07-10T13:42:59.429Z,13.03
2018-07-10T13:45:29.817Z,11.37
2018-07-10T13:48:07.572Z,13.33
2018-07-10T13:50:36.695Z,13.03
2018-07-10T13:53:05.554Z,15.37
2018-07-10T13:55:34.240Z,14.20
2018-07-10T13:58:10.795Z,13.17
2018-07-10T14:00:43.639Z,16.17
2018-07-10T14:03:12.248Z,10.93
2018-07-10T14:05:41.392Z,15.47
2018-07-10T14:08:09.994Z,11.80
2018-07-10T14:10:39.881Z,13.17
2018-07-10T14:13:08.688Z,16.07
2018-07-10T14:15:37.425Z,12.93
2018-07-10T14:18:06.862Z,9.33
2018-07-10T14:20:47.838Z,12.40
2018-07-10T14:23:16.481Z,14.10
2018-07-10T14:25:45.623Z,12.60
2018-07-10T14:28:14.255Z,9.40
2018-07-10T14:33:30.545Z,14.90
2018-07-10T14:35:59.219Z,18.10
2018-07-10T14:38:30.024Z,14.33
2018-07-10T14:41:09.816Z,12.20
2018-07-10T14:43:43.869Z,9.10
2018-07-10T14:46:16.429Z,11.93
2018-07-10T14:48:58.550Z,15.77
2018-07-10T14:51:40.561Z,16.40
2018-07-10T14:54:11.570Z,22.70
2018-07-10T14:56:41.411Z,24.73
2018-07-10T14:59:10.766Z,13.60
2018-07-10T15:01:40.717Z,13.50
2018-07-10T15:04:09.655Z,17.40
2018-07-10T15:06:38.326Z,15.13
2018-07-10T15:09:09.582Z,15.57
2018-07-10T15:11:39.536Z,16.63
2018-07-10T15:14:09.297Z,11.27
2018-07-10T15:16:43.397Z,10.77
2018-07-10T15:19:12.094Z,14.17
2018-07-10T15:21:41.992Z,10.47
2018-07-10T15:24:10.857Z,14.03
2018-07-10T15:26:40.006Z,21.10
2018-07-10T15:29:08.880Z,12.97
2018-07-10T15:31:37.542Z,17.43
2018-07-10T15:34:06.083Z,13.40
2018-07-10T15:36:39.633Z,13.70
2018-07-10T15:39:08.353Z,12.00
2018-07-10T15:41:36.937Z,13.77
2018-07-10T15:44:05.837Z,12.10
2018-07-10T15:46:34.569Z,9.13
2018-07-10T15:49:03.320Z,15.03
2018-07-10T15:51:32.229Z,15.93
2018-07-10T15:54:00.793Z,15.23
2018-07-10T15:56:29.568Z,14.33
2018-07-10T15:58:58.096Z,14.63
2018-07-10T16:01:26.855Z,12.97
2018-07-10T16:03:55.845Z,13.77
2018-07-10T16:06:25.789Z,13.30
2018-07-10T16:09:05.114Z,12.87
2018-07-10T16:11:35.301Z,16.13
2018-07-10T16:14:04.497Z,15.03
2018-07-10T16:16:33.637Z,13.47
2018-07-10T16:19:07.692Z,17.23
2018-07-10T16:21:49.259Z,17.10
2018-07-10T16:24:19.548Z,15.30
2018-07-10T16:26:48.382Z,16.77
2018-07-10T16:29:18.774Z,17.60
2018-07-10T16:31:50.187Z,17.47
2018-07-10T16:34:18.952Z,19.47
2018-07-10T16:36:47.563Z,21.87
2018-07-10T16:39:16.238Z,16.60
2018-07-10T16:41:50.494Z,18.93
2018-07-10T16:44:18.892Z,18.40
2018-07-10T16:46:57.961Z,16.40
2018-07-10T16:49:39.245Z,17.93
2018-07-10T16:53:20.597Z,15.57
2018-07-10T16:55:49.202Z,15.73
2018-07-10T16:58:17.836Z,12.00
2018-07-10T17:00:46.802Z,12.03
2018-07-10T17:03:16.011Z,10.17
2018-07-10T17:05:44.741Z,11.23
2018-07-10T17:08:13.103Z,11.00
2018-07-10T17:10:41.992Z,9.20
2018-07-10T17:13:10.645Z,14.53
2018-07-10T17:15:39.334Z,7.90
2018-07-10T17:18:08.275Z,14.43
2018-07-10T17:20:36.720Z,11.87
2018-07-10T17:23:05.428Z,13.33
2018-07-10T17:25:34.365Z,9.37
2018-07-10T17:28:03.221Z,12.10
2018-07-10T17:30:32.110Z,7.13
2018-07-10T17:33:00.804Z,8.47
2018-07-10T17:35:29.452Z,9.63
2018-07-10T17:37:58.187Z,10.50
2018-07-10T17:40:26.807Z,12.03
2018-07-10T17:42:55.475Z,10.77
2018-07-10T17:45:24.488Z,9.23
2018-07-10T17:47:53.348Z,9.27
2018-07-10T17:50:22.132Z,15.87
2018-07-10T17:52:50.957Z,9.43
2018-07-10T17:55:20.276Z,12.77
2018-07-10T17:57:55.614Z,6.63
2018-07-10T18:00:24.274Z,6.40
2018-07-10T18:02:52.895Z,7.80
2018-07-10T18:05:21.811Z,6.07
2018-07-10T18:07:50.248Z,6.50
2018-07-10T18:10:18.948Z,8.27
2018-07-10T18:12:47.677Z,5.93
2018-07-10T18:15:16.467Z,5.37
2018-07-10T18:17:45.108Z,6.13
2018-07-10T18:20:14.078Z,7.10
2018-07-10T18:22:42.938Z,8.10
2018-07-10T18:25:11.839Z,8.93
2018-07-10T18:27:40.798Z,7.37
2018-07-10T18:30:09.488Z,4.30
2018-07-10T18:32:38.178Z,6.93
2018-07-10T18:35:07.076Z,6.73
2018-07-10T18:37:36.022Z,10.63
2018-07-10T18:40:04.913Z,9.60
2018-07-10T18:42:33.960Z,7.10
2018-07-10T18:45:02.414Z,8.87
2018-07-10T18:47:31.031Z,4.27
2018-07-10T18:50:00.388Z,5.80
2018-07-10T18:52:30.559Z,8.27
2018-07-10T18:54:59.732Z,5.00
2018-07-10T18:58:09.954Z,8.30
2018-07-10T19:01:30.340Z,6.10
2018-07-10T19:04:01.936Z,8.20
2018-07-10T19:06:30.911Z,5.13
2018-07-10T19:08:59.683Z,7.63
2018-07-10T19:11:28.505Z,5.80
2018-07-10T19:14:01.490Z,6.43
2018-07-10T19:16:31.564Z,6.17
2018-07-10T19:19:04.236Z,4.83
2018-07-10T19:21:39.340Z,5.23
2018-07-10T19:24:15.161Z,7.00
2018-07-10T19:26:44.476Z,8.87
2018-07-10T19:29:48.147Z,4.80
2018-07-10T19:32:17.204Z,5.77
2018-07-10T19:34:51.109Z,7.50
2018-07-10T19:37:20.342Z,7.60
2018-07-10T19:39:49.344Z,5.03
2018-07-10T19:42:18.601Z,3.90
2018-07-10T19:44:47.352Z,9.40
2018-07-10T19:47:16.134Z,6.83
2018-07-10T19:49:48.469Z,4.53
2018-07-10T19:52:17.881Z,4.60
2018-07-10T19:54:46.756Z,6.87
2018-07-10T19:57:27.246Z,2.77
2018-07-10T19:59:55.935Z,1.83
2018-07-10T20:02:24.728Z,3.33
2018-07-10T20:05:06.381Z,5.63
2018-07-10T20:07:41.523Z,2.50
2018-07-10T20:10:16.377Z,5.23
2018-07-10T20:13:01.822Z,2.47
2018-07-10T20:16:43.057Z,6.30
2018-07-10T20:20:21.924Z,4.77
2018-07-10T20:24:07.147Z,3.13
2018-07-10T20:26:47.453Z,3.33
2018-07-10T20:30:02.309Z,2.07
2018-07-10T20:32:41.177Z,2.93
2018-07-10T20:35:19.897Z,5.17
2018-07-10T20:37:49.866Z,2.07
2018-07-10T20:40:38.600Z,2.93
2018-07-10T20:43:09.429Z,2.43
2018-07-10T20:45:44.615Z,3.57
2018-07-10T20:49:26.985Z,3.30
2018-07-10T20:52:06.063Z,2.83
2018-07-10T20:54:43.830Z,3.57
2018-07-10T20:57:22.272Z,5.13
2018-07-10T21:00:02.313Z,2.70
2018-07-10T21:05:10.797Z,3.00
2018-07-10T21:07:57.585Z,4.50
2018-07-10T21:10:42.627Z,2.90
2018-07-10T21:14:25.897Z,4.20
2018-07-10T21:17:05.055Z,4.30
2018-07-10T21:19:53.254Z,1.80
2018-07-10T21:24:46.145Z,2.33
2018-07-10T21:28:33.294Z,3.93
2018-07-10T21:31:20.801Z,1.37
2018-07-10T21:34:14.396Z,2.23
2018-07-10T21:36:50.642Z,2.23
2018-07-10T21:41:46.636Z,2.50
2018-07-10T21:45:37.452Z,1.50
2018-07-10T21:49:27.481Z,3.93
2018-07-10T21:51:56.223Z,5.27
2018-07-10T21:54:25.153Z,3.57
2018-07-10T21:56:53.885Z,2.00
2018-07-10T21:59:24.179Z,3.23
2018-07-10T22:01:59.605Z,6.33
2018-07-10T22:04:30.761Z,1.17
2018-07-10T22:07:01.481Z,2.53
2018-07-10T22:09:33.874Z,5.40
2018-07-10T22:12:06.351Z,1.73
2018-07-10T22:14:35.217Z,2.00
2018-07-10T22:17:07.782Z,2.70
2018-07-10T22:19:40.337Z,1.17
2018-07-10T22:22:09.191Z,3.30
2018-07-10T22:24:38.534Z,1.77
2018-07-10T22:27:07.476Z,4.50
2018-07-10T22:29:41.780Z,1.83
2018-07-10T22:32:16.062Z,1.50
2018-07-10T22:34:44.638Z,1.70
2018-07-10T22:37:14.068Z,2.40
2018-07-10T22:39:43.732Z,2.10
2018-07-10T22:42:12.143Z,2.07
2018-07-10T22:44:46.690Z,2.70
2018-07-10T22:47:18.812Z,2.13
2018-07-10T22:49:48.648Z,3.33
2018-07-10T22:52:17.947Z,2.83
2018-07-10T22:54:46.624Z,2.70
2018-07-10T22:57:15.589Z,3.20
2018-07-10T22:59:44.771Z,2.23
2018-07-10T23:02:13.640Z,2.37
2018-07-10T23:04:42.373Z,1.33
2018-07-10T23:07:16.869Z,1.43
2018-07-10T23:09:46.672Z,2.93
2018-07-10T23:12:15.456Z,1.87
2018-07-10T23:14:44.249Z,1.17
2018-07-10T23:17:13.101Z,3.57
2018-07-10T23:19:41.804Z,1.37
2018-07-10T23:22:10.418Z,2.33
2018-07-10T23:24:39.372Z,2.30
2018-07-10T23:27:08.151Z,2.60
2018-07-10T23:29:39.027Z,2.00
2018-07-10T23:32:08.607Z,4.10
2018-07-10T23:34:37.482Z,2.30
2018-07-10T23:37:12.870Z,1.67
2018-07-10T23:39:51.543Z,2.13
2018-07-10T23:42:29.362Z,1.83
2018-07-10T23:45:01.503Z,2.50
2018-07-10T23:47:32.301Z,1.53
2018-07-10T23:50:36.581Z,1.50
2018-07-10T23:53:21.633Z,1.73
2018-07-10T23:55:49.915Z,1.40
2018-07-10T23:58:18.828Z,2.27
